createdAt,value
2023-03-30T00:01:15.109Z,100658.63
2023-03-30T00:03:44.904Z,100650.00
2023-03-30T00:06:23.590Z,100650.81
2023-03-30T00:08:53.746Z,100652.44
2023-03-30T00:11:23.046Z,100649.53
2023-03-30T00:13:50.781Z,100651.38
2023-03-30T00:16:18.754Z,100646.28
2023-03-30T00:18:45.779Z,100644.41
2023-03-30T00:21:12.721Z,100643.09
2023-03-30T00:23:39.944Z,100635.78
2023-03-30T00:26:07.687Z,100636.59
2023-03-30T00:28:34.840Z,100635.72
2023-03-30T00:31:02.230Z,100630.28
2023-03-30T00:33:44.092Z,100629.47
2023-03-30T00:36:13.647Z,100620.56
2023-03-30T00:38:41.030Z,100615.91
2023-03-30T00:41:09.069Z,100612.66
2023-03-30T00:43:55.087Z,100614.69
2023-03-30T00:46:23.556Z,100607.16
2023-03-30T00:48:51.359Z,100599.00
2023-03-30T00:51:19.329Z,100600.88
2023-03-30T00:53:49.857Z,100594.38
2023-03-30T00:56:22.968Z,100587.09
2023-03-30T00:58:50.822Z,100591.63
2023-03-30T01:01:25.644Z,100580.59
2023-03-30T01:03:53.895Z,100572.25
2023-03-30T01:06:24.322Z,100569.81
2023-03-30T01:08:53.370Z,100574.34
2023-03-30T01:11:21.582Z,100569.25
2023-03-30T01:13:57.496Z,100560.06
2023-03-30T01:16:52.769Z,100549.13
2023-03-30T01:19:38.963Z,100542.63
2023-03-30T01:22:25.145Z,100539.13
2023-03-30T01:25:20.580Z,100539.13
2023-03-30T01:28:13.975Z,100533.47
2023-03-30T01:31:10.000Z,100523.81
2023-03-30T01:34:11.042Z,100532.91
2023-03-30T01:37:17.499Z,100510.91
2023-03-30T01:40:14.834Z,100501.25
2023-03-30T01:42:57.006Z,100510.09
2023-03-30T01:45:44.976Z,100502.31
2023-03-30T01:48:36.130Z,100495.34
2023-03-30T01:51:08.754Z,100491.03
2023-03-30T01:54:00.407Z,100483.50
2023-03-30T01:56:39.339Z,100475.13
2023-03-30T01:59:26.294Z,100480.25
2023-03-30T02:02:00.596Z,100473.44
2023-03-30T02:04:31.865Z,100476.38
2023-03-30T02:07:15.590Z,100472.63
2023-03-30T02:09:45.454Z,100488.69
2023-03-30T02:12:13.218Z,100486.59
2023-03-30T02:14:42.398Z,100495.44
2023-03-30T02:17:17.222Z,100488.44
2023-03-30T02:19:48.322Z,100480.41
2023-03-30T02:22:19.550Z,100472.38
2023-03-30T02:24:49.472Z,100459.19
2023-03-30T02:27:18.197Z,100458.19
2023-03-30T02:29:46.935Z,100463.56
2023-03-30T02:32:25.315Z,100471.91
2023-03-30T02:35:18.975Z,100465.97
2023-03-30T02:38:17.174Z,100453.66
2023-03-30T02:41:22.457Z,100450.16
2023-03-30T02:44:32.835Z,100455.19
2023-03-30T02:47:12.850Z,100435.66
2023-03-30T02:50:00.094Z,100441.00
2023-03-30T02:52:36.895Z,100438.06
2023-03-30T02:55:18.945Z,100427.94
2023-03-30T02:58:20.016Z,100420.16
2023-03-30T03:01:15.510Z,100422.59
2023-03-30T03:03:58.149Z,100408.38
2023-03-30T03:06:27.733Z,100407.66
2023-03-30T03:08:56.688Z,100399.38
2023-03-30T03:11:28.711Z,100390.78
2023-03-30T03:13:56.050Z,100398.56
2023-03-30T03:16:24.284Z,100396.44
2023-03-30T03:19:10.615Z,100380.81
2023-03-30T03:21:39.363Z,100385.41
2023-03-30T03:24:07.252Z,100376.25
2023-03-30T03:26:54.646Z,100372.78
2023-03-30T03:29:23.238Z,100371.47
2023-03-30T03:31:50.161Z,100376.00
2023-03-30T03:34:20.167Z,100374.66
2023-03-30T03:37:05.627Z,100370.59
2023-03-30T03:39:35.663Z,100366.88
2023-03-30T03:42:07.812Z,100364.75
2023-03-30T03:44:40.570Z,100365.56
2023-03-30T03:47:07.692Z,100370.66
2023-03-30T03:49:34.667Z,100358.91
2023-03-30T03:52:01.819Z,100352.97
2023-03-30T03:54:28.800Z,100349.25
2023-03-30T03:56:55.890Z,100349.00
2023-03-30T03:59:22.900Z,100330.75
2023-03-30T04:01:50.301Z,100319.25
2023-03-30T04:04:17.408Z,100318.75
2023-03-30T04:06:45.409Z,100323.59
2023-03-30T04:09:12.656Z,100322.78
2023-03-30T04:12:06.653Z,100321.41
2023-03-30T04:14:41.795Z,100314.75
2023-03-30T04:17:23.898Z,100301.13
2023-03-30T04:20:12.100Z,100287.44
2023-03-30T04:22:55.171Z,100290.66
2023-03-30T04:25:58.406Z,100294.66
2023-03-30T04:28:57.672Z,100288.47
2023-03-30T04:31:46.913Z,100280.44
2023-03-30T04:34:30.984Z,100281.81
2023-03-30T04:37:30.603Z,100281.25
2023-03-30T04:40:27.175Z,100280.16
2023-03-30T04:42:54.899Z,100267.81
2023-03-30T04:45:43.566Z,100286.38
2023-03-30T04:48:48.863Z,100280.19
2023-03-30T04:51:27.185Z,100288.22
2023-03-30T04:54:11.695Z,100293.09
2023-03-30T04:57:07.871Z,100284.56
2023-03-30T04:59:44.819Z,100279.19
2023-03-30T05:02:40.983Z,100282.69
2023-03-30T05:05:22.902Z,100274.66
2023-03-30T05:08:08.263Z,100270.09
2023-03-30T05:11:05.104Z,100284.31
2023-03-30T05:14:00.500Z,100277.91
2023-03-30T05:16:58.716Z,100265.00
2023-03-30T05:19:46.635Z,100251.94
2023-03-30T05:22:32.503Z,100253.53
2023-03-30T05:25:17.986Z,100238.78
2023-03-30T05:28:01.262Z,100225.75
2023-03-30T05:30:46.936Z,100210.81
2023-03-30T05:33:32.578Z,100207.94
2023-03-30T05:36:22.164Z,100200.44
2023-03-30T05:39:06.550Z,100202.63
2023-03-30T05:42:11.589Z,100212.28
2023-03-30T05:45:11.093Z,100225.16
2023-03-30T05:47:58.114Z,100228.94
2023-03-30T05:50:44.122Z,100236.97
2023-03-30T05:53:20.034Z,100220.09
2023-03-30T05:56:19.541Z,100221.72
2023-03-30T05:59:13.091Z,100208.38
2023-03-30T06:01:52.969Z,100205.16
2023-03-30T06:04:20.097Z,100213.03
2023-03-30T06:06:47.227Z,100213.06
2023-03-30T06:09:14.234Z,100204.53
2023-03-30T06:12:06.745Z,100194.91
2023-03-30T06:14:35.181Z,100187.69
2023-03-30T06:17:22.846Z,100172.47
2023-03-30T06:19:49.920Z,100176.81
2023-03-30T06:22:17.083Z,100174.44
2023-03-30T06:25:10.631Z,100176.88
2023-03-30T06:27:37.828Z,100182.53
2023-03-30T06:30:05.746Z,100167.53
2023-03-30T06:32:33.134Z,100163.53
2023-03-30T06:35:18.684Z,100148.56
2023-03-30T06:37:45.752Z,100152.09
2023-03-30T06:40:13.902Z,100167.44
2023-03-30T06:42:44.217Z,100158.38
2023-03-30T06:45:31.501Z,100157.88
2023-03-30T06:47:58.732Z,100158.69
2023-03-30T06:50:26.489Z,100175.38
2023-03-30T06:52:59.908Z,100171.09
2023-03-30T06:55:33.007Z,100168.69
2023-03-30T06:58:00.169Z,100163.59
2023-03-30T07:00:27.888Z,100160.94
2023-03-30T07:03:13.830Z,100150.19
2023-03-30T07:05:51.185Z,100136.78
2023-03-30T07:08:35.666Z,100138.66
2023-03-30T07:11:07.080Z,100148.88
2023-03-30T07:13:37.111Z,100146.19
2023-03-30T07:16:04.621Z,100127.94
2023-03-30T07:18:32.493Z,100127.41
2023-03-30T07:21:00.674Z,100132.00
2023-03-30T07:23:36.902Z,100119.44
2023-03-30T07:26:05.078Z,100127.50
2023-03-30T07:28:41.424Z,100121.38
2023-03-30T07:31:13.618Z,100123.25
2023-03-30T07:33:42.124Z,100124.31
2023-03-30T07:36:13.197Z,100119.44
2023-03-30T07:38:40.461Z,100104.63
2023-03-30T07:41:13.070Z,100121.22
2023-03-30T07:43:40.734Z,100101.19
2023-03-30T07:46:10.143Z,100096.22
2023-03-30T07:48:42.134Z,100109.84
2023-03-30T07:51:12.850Z,100099.69
2023-03-30T07:53:48.981Z,100095.69
2023-03-30T07:56:23.825Z,100095.84
2023-03-30T07:58:59.603Z,100093.31
2023-03-30T08:01:33.908Z,100090.22
2023-03-30T08:04:07.379Z,100077.09
2023-03-30T08:06:36.291Z,100078.47
2023-03-30T08:09:04.524Z,100080.38
2023-03-30T08:11:32.954Z,100089.78
2023-03-30T08:14:00.043Z,100091.16
2023-03-30T08:16:27.079Z,100086.66
2023-03-30T08:18:54.886Z,100076.84
2023-03-30T08:21:25.649Z,100072.50
2023-03-30T08:23:55.003Z,100058.09
2023-03-30T08:26:22.208Z,100066.78
2023-03-30T08:28:50.032Z,100056.84
2023-03-30T08:31:18.219Z,100062.63
2023-03-30T08:33:45.485Z,100058.34
2023-03-30T08:36:15.963Z,100049.28
2023-03-30T08:38:46.072Z,100041.19
2023-03-30T08:41:29.516Z,100037.44
2023-03-30T08:44:01.348Z,100046.66
2023-03-30T08:46:30.330Z,100039.09
2023-03-30T08:49:01.387Z,100034.00
2023-03-30T08:51:35.602Z,100024.84
2023-03-30T08:54:06.564Z,100045.16
2023-03-30T08:57:14.513Z,100045.41
2023-03-30T09:00:07.287Z,100038.34
2023-03-30T09:02:47.502Z,100026.63
2023-03-30T09:05:34.875Z,100019.47
2023-03-30T09:08:24.568Z,100012.75
2023-03-30T09:11:00.813Z,100022.94
2023-03-30T09:13:33.862Z,100021.28
2023-03-30T09:16:33.742Z,100023.41
2023-03-30T09:19:03.362Z,100033.91
2023-03-30T09:21:32.714Z,100015.03
2023-03-30T09:24:11.804Z,100019.41
2023-03-30T09:27:00.409Z,100041.50
2023-03-30T09:29:34.208Z,100022.63
2023-03-30T09:32:06.531Z,100023.44
2023-03-30T09:35:26.079Z,100013.84
2023-03-30T09:37:53.420Z,100030.28
2023-03-30T09:41:04.799Z,100004.81
2023-03-30T09:43:44.282Z,100034.38
2023-03-30T09:46:12.669Z,100033.53
2023-03-30T09:48:48.717Z,100029.78
2023-03-30T09:51:24.102Z,100020.91
2023-03-30T09:54:01.670Z,100029.44
2023-03-30T09:56:34.747Z,100025.34
2023-03-30T09:59:34.840Z,100024.63
2023-03-30T10:02:16.693Z,100020.91
2023-03-30T10:04:53.063Z,100025.78
2023-03-30T10:07:28.486Z,100017.91
2023-03-30T10:09:58.381Z,100036.03
2023-03-30T10:12:27.840Z,100017.38
2023-03-30T10:15:00.988Z,100036.84
2023-03-30T10:17:29.762Z,100029.94
2023-03-30T10:20:36.307Z,100038.00
2023-03-30T10:23:17.080Z,100046.19
2023-03-30T10:25:50.165Z,100046.59
2023-03-30T10:28:27.869Z,100044.50
2023-03-30T10:31:06.865Z,100052.16
2023-03-30T10:33:41.135Z,100041.31
2023-03-30T10:36:09.605Z,100055.94
2023-03-30T10:38:40.675Z,100043.50
2023-03-30T10:41:23.061Z,100043.00
2023-03-30T10:43:51.653Z,100031.78
2023-03-30T10:46:24.830Z,100035.78
2023-03-30T10:49:30.619Z,100024.16
2023-03-30T10:53:07.596Z,100019.94
2023-03-30T10:56:09.618Z,100009.41
2023-03-30T10:59:32.164Z,100007.47
2023-03-30T11:02:33.946Z,100011.06
2023-03-30T11:05:13.433Z,100017.09
2023-03-30T11:07:48.531Z,100023.72
2023-03-30T11:10:30.518Z,100015.66
2023-03-30T11:13:27.893Z,100008.28
2023-03-30T11:16:03.668Z,100005.22
2023-03-30T11:18:57.551Z,100009.03
2023-03-30T11:21:45.201Z,100004.72
2023-03-30T11:24:21.164Z,100007.94
2023-03-30T11:27:13.168Z,100004.41
2023-03-30T11:29:49.709Z,100011.75
2023-03-30T11:32:57.497Z,100003.19
2023-03-30T11:35:42.989Z,99996.69
2023-03-30T11:38:29.267Z,99999.97
2023-03-30T11:41:12.950Z,99992.50
2023-03-30T11:43:40.055Z,99999.22
2023-03-30T11:46:18.052Z,99998.63
2023-03-30T11:48:57.836Z,99997.50
2023-03-30T11:51:50.032Z,99988.53
2023-03-30T11:55:01.779Z,99984.19
2023-03-30T11:57:32.070Z,99948.84
2023-03-30T12:00:14.585Z,99948.44
2023-03-30T12:03:13.272Z,99946.63
2023-03-30T12:05:48.589Z,99940.81
2023-03-30T12:08:46.267Z,99929.19
2023-03-30T12:11:41.602Z,99947.16
2023-03-30T12:15:01.657Z,99934.38
2023-03-30T12:17:50.639Z,99915.47
2023-03-30T12:21:01.668Z,99901.63
2023-03-30T12:23:50.716Z,99899.69
2023-03-30T12:26:28.886Z,99884.09
2023-03-30T12:29:36.095Z,99891.63
2023-03-30T12:32:03.609Z,99900.69
2023-03-30T12:34:41.732Z,99880.94
2023-03-30T12:37:33.742Z,99856.19
2023-03-30T12:40:22.695Z,99848.66
2023-03-30T12:43:09.326Z,99856.63
2023-03-30T12:46:07.773Z,99841.13
2023-03-30T12:48:48.982Z,99832.56
2023-03-30T12:51:49.220Z,99823.47
2023-03-30T12:54:49.306Z,99821.78
2023-03-30T12:57:53.944Z,99812.59
2023-03-30T13:00:31.688Z,99817.75
2023-03-30T13:03:55.775Z,99796.59
2023-03-30T13:06:31.112Z,99794.88
2023-03-30T13:09:12.944Z,99790.91
2023-03-30T13:12:20.689Z,99768.16
2023-03-30T13:14:47.660Z,99782.50
2023-03-30T13:17:21.382Z,99803.16
2023-03-30T13:20:29.244Z,99770.81
2023-03-30T13:23:25.501Z,99762.81
2023-03-30T13:26:06.319Z,99760.25
2023-03-30T13:28:55.166Z,99762.13
2023-03-30T13:31:55.813Z,99765.25
2023-03-30T13:34:35.218Z,99791.66
2023-03-30T13:37:51.557Z,99763.69
2023-03-30T13:40:38.622Z,99759.38
2023-03-30T13:44:09.775Z,99771.44
2023-03-30T13:46:53.073Z,99765.69
2023-03-30T13:49:33.133Z,99772.09
2023-03-30T13:52:11.185Z,99781.91
2023-03-30T13:54:41.260Z,99774.94
2023-03-30T13:57:25.629Z,99790.78
2023-03-30T13:59:59.706Z,99791.50
2023-03-30T14:02:31.001Z,99825.88
2023-03-30T14:05:20.625Z,99867.31
2023-03-30T14:07:48.945Z,99896.25
2023-03-30T14:10:22.094Z,99906.97
2023-03-30T14:12:54.464Z,99925.50
2023-03-30T14:15:26.729Z,99926.44
2023-03-30T14:17:58.399Z,99925.34
2023-03-30T14:20:44.592Z,99942.41
2023-03-30T14:23:33.973Z,99944.06
2023-03-30T14:26:06.625Z,99933.13
2023-03-30T14:28:36.173Z,99935.22
2023-03-30T14:31:13.665Z,99937.13
2023-03-30T14:33:41.079Z,99949.75
2023-03-30T14:36:11.978Z,99938.31
2023-03-30T14:38:42.944Z,99943.34
2023-03-30T14:41:27.678Z,99924.16
2023-03-30T14:44:03.613Z,99923.88
2023-03-30T14:46:47.473Z,99916.25
2023-03-30T14:49:23.795Z,99902.72
2023-03-30T14:52:02.396Z,99902.25
2023-03-30T14:54:31.022Z,99917.66
2023-03-30T14:57:03.984Z,99913.19
2023-03-30T14:59:37.653Z,99915.38
2023-03-30T15:02:24.436Z,99929.47
2023-03-30T15:04:52.030Z,99925.81
2023-03-30T15:07:23.131Z,99936.69
2023-03-30T15:10:01.112Z,99938.13
2023-03-30T15:12:41.279Z,99932.03
2023-03-30T15:15:12.303Z,99923.00
2023-03-30T15:17:46.347Z,99924.66
2023-03-30T15:20:14.637Z,99942.44
2023-03-30T15:22:47.708Z,99936.81
2023-03-30T15:25:19.603Z,99943.28
2023-03-30T15:27:57.613Z,99930.63
2023-03-30T15:30:29.977Z,99943.53
2023-03-30T15:32:58.012Z,99929.63
2023-03-30T15:35:32.254Z,99954.03
2023-03-30T15:38:17.059Z,99965.59
2023-03-30T15:40:47.521Z,99968.31
2023-03-30T15:44:16.629Z,99976.09
2023-03-30T15:46:44.028Z,99985.56
2023-03-30T15:49:16.553Z,99980.22
2023-03-30T15:51:52.142Z,99976.16
2023-03-30T15:54:41.597Z,99983.97
2023-03-30T15:57:13.199Z,99983.44
2023-03-30T15:59:52.791Z,99982.63
2023-03-30T16:02:24.611Z,99978.06
2023-03-30T16:04:51.661Z,99970.81
2023-03-30T16:07:24.954Z,99983.97
2023-03-30T16:09:52.668Z,99974.59
2023-03-30T16:12:29.498Z,99966.25
2023-03-30T16:14:57.968Z,99976.16
2023-03-30T16:17:25.957Z,99973.78
2023-03-30T16:19:53.006Z,99980.22
2023-03-30T16:22:19.960Z,99984.78
2023-03-30T16:24:48.280Z,99976.16
2023-03-30T16:27:15.472Z,99984.22
2023-03-30T16:29:42.453Z,99971.03
2023-03-30T16:32:09.441Z,99980.66
2023-03-30T16:34:36.873Z,99983.84
2023-03-30T16:37:03.959Z,99988.72
2023-03-30T16:39:31.272Z,99979.81
2023-03-30T16:41:58.445Z,99982.75
2023-03-30T16:44:25.904Z,99980.59
2023-03-30T16:46:53.005Z,99973.06
2023-03-30T16:49:24.174Z,99978.97
2023-03-30T16:51:54.527Z,99974.38
2023-03-30T16:54:31.167Z,99976.31
2023-03-30T16:57:01.074Z,99985.16
2023-03-30T16:59:32.408Z,99979.78
2023-03-30T17:02:00.263Z,99984.34
2023-03-30T17:04:27.430Z,99991.88
2023-03-30T17:06:55.150Z,99989.41
2023-03-30T17:09:22.657Z,99996.41
2023-03-30T17:11:50.351Z,99999.38
2023-03-30T17:14:17.728Z,99981.06
2023-03-30T17:16:44.792Z,99990.19
2023-03-30T17:19:15.029Z,99993.97
2023-03-30T17:21:45.782Z,100000.13
2023-03-30T17:24:15.090Z,99994.50
2023-03-30T17:26:42.813Z,100010.63
2023-03-30T17:29:10.535Z,100010.63
2023-03-30T17:31:38.756Z,100010.09
2023-03-30T17:34:06.999Z,100017.38
2023-03-30T17:36:33.996Z,100020.34
2023-03-30T17:39:04.730Z,100028.72
2023-03-30T17:41:33.728Z,100034.94
2023-03-30T17:44:00.686Z,100029.59
2023-03-30T17:46:28.234Z,100042.78
2023-03-30T17:48:55.390Z,100040.63
2023-03-30T17:51:22.429Z,100043.03
2023-03-30T17:53:49.584Z,100054.06
2023-03-30T17:56:16.557Z,100054.88
2023-03-30T17:58:43.496Z,100050.63
2023-03-30T18:01:12.798Z,100057.91
2023-03-30T18:03:40.813Z,100051.47
2023-03-30T18:06:07.986Z,100067.31
2023-03-30T18:08:36.039Z,100053.63
2023-03-30T18:11:04.317Z,100059.00
2023-03-30T18:13:31.604Z,100063.56
2023-03-30T18:16:00.501Z,100063.31
2023-03-30T18:18:30.553Z,100076.50
2023-03-30T18:21:03.584Z,100070.31
2023-03-30T18:23:33.430Z,100067.09
2023-03-30T18:26:01.556Z,100062.25
2023-03-30T18:28:31.962Z,100065.50
2023-03-30T18:31:00.982Z,100076.50
2023-03-30T18:33:28.677Z,100058.78
2023-03-30T18:36:05.481Z,100056.09
2023-03-30T18:38:33.458Z,100064.16
2023-03-30T18:41:01.478Z,100071.94
2023-03-30T18:43:29.088Z,100068.44
2023-03-30T18:46:01.542Z,100069.25
2023-03-30T18:48:29.310Z,100084.03
2023-03-30T18:50:57.073Z,100085.63
2023-03-30T18:53:28.398Z,100094.22
2023-03-30T18:56:00.212Z,100102.81
2023-03-30T18:58:30.992Z,100102.53
2023-03-30T19:00:58.040Z,100099.84
2023-03-30T19:03:30.094Z,100113.00
2023-03-30T19:05:57.511Z,100113.28
2023-03-30T19:08:26.219Z,100109.56
2023-03-30T19:10:57.099Z,100111.16
2023-03-30T19:13:26.522Z,100107.69
2023-03-30T19:15:54.338Z,100107.13
2023-03-30T19:18:21.804Z,100114.94
2023-03-30T19:20:50.989Z,100122.72
2023-03-30T19:23:21.736Z,100141.53
2023-03-30T19:25:49.114Z,100150.41
2023-03-30T19:28:16.999Z,100152.81
2023-03-30T19:30:44.282Z,100164.91
2023-03-30T19:33:17.133Z,100180.50
2023-03-30T19:35:45.723Z,100175.41
2023-03-30T19:38:14.256Z,100173.25
2023-03-30T19:40:42.457Z,100192.59
2023-03-30T19:43:10.456Z,100185.06
2023-03-30T19:45:38.199Z,100177.00
2023-03-30T19:48:05.865Z,100187.22
2023-03-30T19:50:33.083Z,100184.53
2023-03-30T19:53:00.199Z,100189.09
2023-03-30T19:55:27.891Z,100168.41
2023-03-30T19:57:55.680Z,100163.84
2023-03-30T20:00:23.278Z,100159.81
2023-03-30T20:02:53.049Z,100149.31
2023-03-30T20:05:22.399Z,100150.13
2023-03-30T20:07:50.438Z,100146.38
2023-03-30T20:10:26.699Z,100158.72
2023-03-30T20:12:54.533Z,100156.56
2023-03-30T20:15:23.376Z,100155.50
2023-03-30T20:17:56.167Z,100153.34
2023-03-30T20:20:25.357Z,100152.53
2023-03-30T20:22:56.132Z,100157.59
2023-03-30T20:25:26.899Z,100154.38
2023-03-30T20:27:54.625Z,100152.72
2023-03-30T20:30:22.001Z,100171.00
2023-03-30T20:33:00.149Z,100155.09
2023-03-30T20:35:35.056Z,100165.53
2023-03-30T20:38:04.545Z,100171.72
2023-03-30T20:40:32.347Z,100173.03
2023-03-30T20:43:03.226Z,100167.09
2023-03-30T20:45:32.734Z,100170.63
2023-03-30T20:48:16.063Z,100178.38
2023-03-30T20:50:43.278Z,100178.91
2023-03-30T20:53:10.529Z,100181.59
2023-03-30T20:55:37.571Z,100175.41
2023-03-30T20:58:04.494Z,100172.97
2023-03-30T21:00:31.512Z,100167.88
2023-03-30T21:02:58.837Z,100170.81
2023-03-30T21:05:26.028Z,100168.41
2023-03-30T21:07:55.215Z,100171.06
2023-03-30T21:10:22.096Z,100165.41
2023-03-30T21:12:49.252Z,100161.66
2023-03-30T21:15:17.078Z,100153.06
2023-03-30T21:17:44.161Z,100157.09
2023-03-30T21:20:12.102Z,100152.53
2023-03-30T21:22:38.958Z,100145.53
2023-03-30T21:25:06.560Z,100141.50
2023-03-30T21:27:33.527Z,100156.28
2023-03-30T21:30:00.626Z,100146.09
2023-03-30T21:32:29.352Z,100152.53
2023-03-30T21:34:58.312Z,100147.44
2023-03-30T21:37:25.252Z,100157.38
2023-03-30T21:39:52.414Z,100149.06
2023-03-30T21:42:20.708Z,100148.53
2023-03-30T21:44:47.829Z,100152.84
2023-03-30T21:47:16.514Z,100147.19
2023-03-30T21:49:43.962Z,100146.94
2023-03-30T21:52:10.880Z,100143.47
2023-03-30T21:54:37.891Z,100140.78
2023-03-30T21:57:05.681Z,100143.47
2023-03-30T21:59:32.650Z,100136.78
2023-03-30T22:01:59.749Z,100130.34
2023-03-30T22:04:26.869Z,100133.56
2023-03-30T22:06:53.880Z,100132.78
2023-03-30T22:09:20.866Z,100124.72
2023-03-30T22:11:48.225Z,100125.81
2023-03-30T22:14:15.349Z,100120.16
2023-03-30T22:16:42.734Z,100112.66
2023-03-30T22:19:09.808Z,100115.34
2023-03-30T22:21:37.189Z,100114.28
2023-03-30T22:24:07.109Z,100120.47
2023-03-30T22:26:35.895Z,100113.47
2023-03-30T22:29:04.019Z,100104.34
2023-03-30T22:31:31.083Z,100113.75
2023-03-30T22:33:58.048Z,100094.69
2023-03-30T22:36:32.054Z,100094.16
2023-03-30T22:39:01.549Z,100106.78
2023-03-30T22:41:29.331Z,100109.72
2023-03-30T22:43:58.285Z,100097.38
2023-03-30T22:46:27.360Z,100098.97
2023-03-30T22:48:57.553Z,100103.28
2023-03-30T22:51:28.356Z,100099.25
2023-03-30T22:54:00.004Z,100099.25
2023-03-30T22:56:29.443Z,100093.88
2023-03-30T22:58:58.679Z,100100.38
2023-03-30T23:01:26.038Z,100096.88
2023-03-30T23:03:53.367Z,100095.25
2023-03-30T23:06:21.410Z,100096.88
2023-03-30T23:08:49.128Z,100085.28
2023-03-30T23:11:16.996Z,100092.28
2023-03-30T23:13:44.022Z,100088.50
2023-03-30T23:16:11.186Z,100079.38
2023-03-30T23:18:38.919Z,100083.94
2023-03-30T23:21:07.629Z,100088.25
2023-03-30T23:23:36.147Z,100079.66
2023-03-30T23:26:08.040Z,100078.31
2023-03-30T23:28:37.732Z,100076.44
2023-03-30T23:31:14.941Z,100077.78
2023-03-30T23:33:43.167Z,100068.91
2023-03-30T23:36:16.863Z,100075.91
2023-03-30T23:38:44.836Z,100075.09
2023-03-30T23:41:19.225Z,100068.66
2023-03-30T23:43:46.535Z,100071.91
2023-03-30T23:46:14.016Z,100065.47
2023-03-30T23:48:41.943Z,100057.69
2023-03-30T23:51:09.548Z,100057.41
2023-03-30T23:53:39.964Z,100064.66
2023-03-30T23:56:13.653Z,100058.75
2023-03-30T23:58:41.296Z,100060.91
